createdAt,value
2023-09-19T00:17:01.161Z,9.00
2023-09-19T00:20:01.998Z,10.10
2023-09-19T00:23:14.327Z,8.70
2023-09-19T00:26:14.477Z,7.50
2023-09-19T00:29:30.739Z,10.60
2023-09-19T00:32:10.196Z,8.90
2023-09-19T00:35:20.634Z,8.70
2023-09-19T00:38:29.963Z,10.30
2023-09-19T00:41:30.817Z,10.00
2023-09-19T00:44:45.707Z,12.50
2023-09-19T00:48:00.911Z,15.20
2023-09-19T00:51:13.883Z,9.20
2023-09-19T00:54:35.361Z,10.70
2023-09-19T00:58:00.554Z,9.20
2023-09-19T01:00:46.200Z,9.60
2023-09-19T01:04:15.662Z,10.50
2023-09-19T01:07:16.280Z,8.80
2023-09-19T01:10:13.680Z,9.70
2023-09-19T01:13:49.537Z,9.70
2023-09-19T01:16:52.077Z,10.70
2023-09-19T01:20:30.438Z,11.30
2023-09-19T01:24:15.723Z,9.90
2023-09-19T01:27:52.168Z,11.90
2023-09-19T01:30:45.391Z,12.10
2023-09-19T01:34:29.848Z,9.70
2023-09-19T01:38:03.564Z,8.70
2023-09-19T01:41:15.957Z,9.90
2023-09-19T01:44:19.759Z,8.90
2023-09-19T01:47:21.973Z,9.80
2023-09-19T01:51:05.920Z,10.70
2023-09-19T01:54:14.017Z,10.50
2023-09-19T01:57:41.111Z,9.30
2023-09-19T02:00:32.849Z,10.00
2023-09-19T02:03:26.749Z,9.30
2023-09-19T02:06:21.556Z,10.30
2023-09-19T02:09:36.954Z,12.00
2023-09-19T02:12:37.752Z,12.10
2023-09-19T02:15:28.110Z,11.20
2023-09-19T02:21:35.747Z,9.30
2023-09-19T02:24:49.600Z,12.70
2023-09-19T02:27:37.586Z,11.00
2023-09-19T02:30:17.558Z,9.80
2023-09-19T02:33:40.983Z,11.70
2023-09-19T02:36:48.712Z,8.20
2023-09-19T02:39:39.576Z,11.60
2023-09-19T02:42:48.972Z,9.90
2023-09-19T02:45:31.573Z,9.40
2023-09-19T02:48:34.004Z,11.20
2023-09-19T03:04:23.949Z,11.20
2023-09-19T03:07:15.189Z,8.60
2023-09-19T03:10:47.175Z,7.70
2023-09-19T03:14:16.790Z,10.10
2023-09-19T03:17:06.694Z,9.30
2023-09-19T03:19:59.976Z,9.30
2023-09-19T03:23:02.661Z,10.00
2023-09-19T03:26:02.469Z,9.00
2023-09-19T03:29:08.190Z,10.60
2023-09-19T03:32:25.421Z,9.90
2023-09-19T03:35:18.939Z,9.50
2023-09-19T03:38:41.053Z,8.90
2023-09-19T03:41:34.820Z,9.60
2023-09-19T03:44:06.190Z,8.70
2023-09-19T03:46:57.314Z,9.30
2023-09-19T03:49:44.649Z,8.80
2023-09-19T03:52:34.993Z,11.90
2023-09-19T03:55:28.939Z,9.00
2023-09-19T03:58:01.839Z,10.00
2023-09-19T04:01:11.533Z,10.80
2023-09-19T04:04:11.084Z,8.40
2023-09-19T04:07:13.861Z,8.80
2023-09-19T04:10:10.636Z,11.10
2023-09-19T04:12:56.178Z,9.50
2023-09-19T04:15:34.898Z,9.20
2023-09-19T04:18:25.202Z,8.60
2023-09-19T04:21:35.944Z,14.20
2023-09-19T04:24:28.314Z,10.60
2023-09-19T04:27:31.206Z,9.60
2023-09-19T04:30:46.237Z,9.90
2023-09-19T04:33:41.754Z,8.30
2023-09-19T04:36:35.204Z,8.90
2023-09-19T04:39:27.221Z,9.40
2023-09-19T04:42:07.678Z,11.20
2023-09-19T04:44:54.921Z,14.60
2023-09-19T04:47:46.247Z,9.40
2023-09-19T04:50:28.429Z,9.80
2023-09-19T04:53:29.653Z,11.60
2023-09-19T04:56:17.346Z,11.20
2023-09-19T05:01:43.892Z,11.40
2023-09-19T05:04:21.371Z,10.40
2023-09-19T05:06:57.963Z,11.50
2023-09-19T05:09:50.055Z,15.40
2023-09-19T05:12:21.978Z,13.40
2023-09-19T05:15:11.305Z,14.40
2023-09-19T05:18:05.393Z,20.50
2023-09-19T05:20:57.786Z,10.60
2023-09-19T05:23:38.812Z,11.40
2023-09-19T05:26:33.403Z,12.80
2023-09-19T05:29:35.062Z,13.10
2023-09-19T05:32:14.364Z,13.50
2023-09-19T05:34:47.190Z,12.60
2023-09-19T05:37:46.493Z,11.00
2023-09-19T05:40:46.204Z,11.20
2023-09-19T05:43:25.911Z,10.50
2023-09-19T05:46:05.326Z,11.40
2023-09-19T05:48:55.494Z,11.90
2023-09-19T05:51:41.218Z,13.90
2023-09-19T05:54:23.961Z,10.80
2023-09-19T05:57:18.357Z,12.40
2023-09-19T05:59:52.130Z,13.50
2023-09-19T06:02:45.289Z,12.40
2023-09-19T06:05:24.113Z,11.50
2023-09-19T06:08:19.275Z,9.30
2023-09-19T06:11:06.443Z,10.90
2023-09-19T06:13:48.941Z,10.90
2023-09-19T06:16:22.343Z,9.40
2023-09-19T06:18:56.284Z,9.10
2023-09-19T06:21:28.963Z,10.40
2023-09-19T06:24:01.672Z,14.90
2023-09-19T06:26:45.935Z,11.30
2023-09-19T06:29:25.136Z,11.40
2023-09-19T06:32:10.720Z,10.60
2023-09-19T06:34:40.572Z,13.10
2023-09-19T06:37:28.330Z,12.10
2023-09-19T06:40:02.760Z,12.20
2023-09-19T06:43:06.300Z,11.50
2023-09-19T06:48:30.672Z,15.80
2023-09-19T06:51:19.346Z,15.10
2023-09-19T06:53:52.818Z,13.30
2023-09-19T06:56:33.760Z,14.20
2023-09-19T06:59:17.368Z,15.00
2023-09-19T07:01:56.579Z,14.80
2023-09-19T07:04:49.443Z,12.80
2023-09-19T07:07:47.114Z,13.10
2023-09-19T07:10:27.558Z,11.70
2023-09-19T07:13:16.215Z,12.60
2023-09-19T07:15:49.488Z,10.60
2023-09-19T07:18:47.881Z,12.30
2023-09-19T07:21:23.041Z,11.80
2023-09-19T07:23:57.987Z,12.50
2023-09-19T07:26:48.406Z,13.10
2023-09-19T07:29:18.726Z,12.70
2023-09-19T07:32:29.614Z,11.70
2023-09-19T07:35:21.020Z,12.30
2023-09-19T07:38:23.054Z,12.80
2023-09-19T07:40:53.299Z,15.70
2023-09-19T07:43:32.460Z,12.90
2023-09-19T07:46:14.192Z,17.80
2023-09-19T07:48:53.837Z,14.60
2023-09-19T07:51:48.552Z,21.70
2023-09-19T07:54:20.741Z,24.20
2023-09-19T07:57:03.443Z,16.40
2023-09-19T07:59:54.777Z,18.20
2023-09-19T08:02:24.366Z,17.60
2023-09-19T08:05:14.669Z,16.60
2023-09-19T08:08:04.542Z,17.70
2023-09-19T08:10:37.694Z,19.40
2023-09-19T08:13:45.305Z,18.70
2023-09-19T08:16:29.397Z,15.60
2023-09-19T08:19:04.844Z,18.80
2023-09-19T08:21:49.687Z,21.80
2023-09-19T08:24:31.707Z,15.00
2023-09-19T08:27:22.437Z,17.00
2023-09-19T08:30:05.192Z,15.20
2023-09-19T08:32:44.466Z,20.50
2023-09-19T08:35:48.033Z,18.40
2023-09-19T08:38:31.413Z,18.60
2023-09-19T08:41:07.051Z,13.20
2023-09-19T08:43:53.723Z,16.30
2023-09-19T08:46:37.566Z,15.80
2023-09-19T08:49:25.851Z,16.20
2023-09-19T08:52:22.498Z,16.60
2023-09-19T08:55:02.813Z,16.80
2023-09-19T08:57:45.036Z,18.60
2023-09-19T09:00:26.369Z,19.00
2023-09-19T09:03:08.452Z,18.60
2023-09-19T09:05:42.240Z,16.70
2023-09-19T09:08:17.200Z,17.90
2023-09-19T09:10:47.662Z,19.00
2023-09-19T09:13:23.576Z,20.90
2023-09-19T09:16:00.571Z,18.90
2023-09-19T09:18:33.961Z,20.80
2023-09-19T09:21:15.266Z,16.80
2023-09-19T09:23:49.380Z,16.60
2023-09-19T09:26:50.927Z,15.70
2023-09-19T09:30:00.268Z,15.10
2023-09-19T09:32:35.389Z,15.40
2023-09-19T09:35:16.601Z,13.80
2023-09-19T09:37:55.822Z,15.30
2023-09-19T09:40:48.777Z,15.00
2023-09-19T09:43:50.526Z,13.80
2023-09-19T09:47:01.213Z,16.00
2023-09-19T09:49:41.803Z,14.00
2023-09-19T09:52:21.449Z,14.20
2023-09-19T09:55:03.326Z,16.80
2023-09-19T09:57:43.128Z,14.50
2023-09-19T10:00:14.110Z,14.30
2023-09-19T10:03:03.109Z,15.00
2023-09-19T10:05:59.814Z,14.10
2023-09-19T10:08:39.866Z,14.90
2023-09-19T10:11:21.437Z,13.80
2023-09-19T10:13:52.218Z,13.70
2023-09-19T10:16:26.497Z,13.10
2023-09-19T10:19:03.622Z,16.00
2023-09-19T10:21:44.982Z,13.50
2023-09-19T10:24:29.575Z,13.50
2023-09-19T10:27:10.726Z,12.60
2023-09-19T10:29:45.402Z,14.00
2023-09-19T10:32:20.695Z,13.20
2023-09-19T10:35:00.439Z,12.00
2023-09-19T10:37:33.998Z,15.40
2023-09-19T10:40:19.174Z,14.60
2023-09-19T10:42:51.761Z,13.30
2023-09-19T10:45:23.974Z,13.40
2023-09-19T10:48:00.419Z,13.30
2023-09-19T10:50:52.738Z,13.10
2023-09-19T10:53:33.826Z,15.20
2023-09-19T10:56:21.447Z,13.30
2023-09-19T11:01:51.214Z,14.50
2023-09-19T11:04:42.260Z,13.50
2023-09-19T11:07:16.447Z,14.30
2023-09-19T11:09:56.363Z,13.10
2023-09-19T11:12:47.270Z,10.80
2023-09-19T11:15:58.747Z,12.70
2023-09-19T11:18:47.943Z,16.00
2023-09-19T11:21:54.052Z,15.70
2023-09-19T11:24:32.751Z,16.30
2023-09-19T11:27:36.127Z,14.90
2023-09-19T11:30:45.300Z,15.60
2023-09-19T11:33:23.704Z,13.90
2023-09-19T11:36:17.453Z,12.90
2023-09-19T11:38:51.376Z,10.50
2023-09-19T11:41:23.354Z,12.50
2023-09-19T11:44:15.241Z,13.10
2023-09-19T11:46:58.272Z,13.60
2023-09-19T11:49:34.586Z,14.60
2023-09-19T11:52:10.206Z,12.70
2023-09-19T11:54:44.525Z,11.30
2023-09-19T11:57:22.953Z,13.70
2023-09-19T11:59:55.290Z,17.50
2023-09-19T12:02:43.976Z,16.30
2023-09-19T12:05:16.709Z,14.20
2023-09-19T12:07:53.125Z,14.50
2023-09-19T12:10:25.239Z,16.10
2023-09-19T12:12:58.000Z,14.00
2023-09-19T12:15:37.067Z,15.40
2023-09-19T12:18:29.928Z,12.70
2023-09-19T12:21:14.706Z,15.20
2023-09-19T12:23:45.383Z,14.50
2023-09-19T12:26:16.415Z,12.90
2023-09-19T12:28:46.691Z,17.10
2023-09-19T12:31:19.831Z,13.80
2023-09-19T12:33:56.785Z,14.40
2023-09-19T12:36:32.023Z,17.90
2023-09-19T12:39:02.508Z,14.00
2023-09-19T12:41:33.436Z,12.70
2023-09-19T12:44:07.871Z,15.80
2023-09-19T12:46:39.684Z,15.40
2023-09-19T12:49:20.333Z,15.30
2023-09-19T12:52:01.089Z,15.30
2023-09-19T12:54:42.036Z,15.50
2023-09-19T12:57:27.558Z,13.30
2023-09-19T12:59:58.520Z,16.30
2023-09-19T13:02:30.963Z,16.90
2023-09-19T13:05:05.864Z,13.60
2023-09-19T13:07:51.270Z,16.00
2023-09-19T13:10:25.930Z,15.40
2023-09-19T13:13:30.288Z,15.90
2023-09-19T13:16:03.019Z,14.80
2023-09-19T13:18:34.747Z,13.50
2023-09-19T13:21:13.980Z,18.00
2023-09-19T13:23:45.296Z,14.60
2023-09-19T13:26:15.493Z,13.40
2023-09-19T13:28:45.893Z,12.30
2023-09-19T13:31:15.985Z,15.60
2023-09-19T13:33:47.646Z,15.60
2023-09-19T13:36:20.464Z,12.30
2023-09-19T13:38:51.089Z,13.30
2023-09-19T13:41:22.960Z,14.80
2023-09-19T13:43:54.485Z,20.90
2023-09-19T13:46:29.105Z,13.10
2023-09-19T13:49:00.835Z,10.60
2023-09-19T13:51:33.561Z,15.20
2023-09-19T13:54:04.104Z,16.30
2023-09-19T13:56:35.298Z,12.90
2023-09-19T13:59:05.729Z,16.00
2023-09-19T14:01:35.015Z,13.40
2023-09-19T14:04:05.321Z,12.70
2023-09-19T14:06:35.488Z,13.90
2023-09-19T14:09:05.772Z,17.00
2023-09-19T14:11:36.350Z,12.10
2023-09-19T14:14:07.848Z,15.70
2023-09-19T14:16:41.286Z,14.10
2023-09-19T14:19:11.886Z,12.90
2023-09-19T14:21:42.761Z,12.10
2023-09-19T14:24:18.241Z,14.00
2023-09-19T14:26:49.038Z,12.60
2023-09-19T14:29:21.474Z,14.50
2023-09-19T14:31:53.575Z,12.40
2023-09-19T14:34:23.560Z,17.70
2023-09-19T14:36:55.974Z,12.90
2023-09-19T14:39:26.806Z,15.70
2023-09-19T14:41:59.184Z,13.00
2023-09-19T14:44:29.943Z,14.50
2023-09-19T14:46:59.130Z,12.70
2023-09-19T14:49:29.904Z,13.80
2023-09-19T14:52:00.786Z,12.50
2023-09-19T14:54:32.454Z,16.30
2023-09-19T14:57:10.516Z,13.20
2023-09-19T14:59:40.839Z,17.30
2023-09-19T15:02:10.242Z,14.30
2023-09-19T15:04:42.783Z,16.40
2023-09-19T15:07:11.901Z,19.50
2023-09-19T15:09:40.967Z,16.10
2023-09-19T15:12:15.836Z,16.70
2023-09-19T15:14:49.528Z,17.20
2023-09-19T15:17:19.637Z,16.00
2023-09-19T15:19:48.601Z,18.10
2023-09-19T15:22:19.125Z,16.80
2023-09-19T15:24:49.287Z,16.50
2023-09-19T15:27:21.516Z,17.40
2023-09-19T15:29:51.593Z,14.00
2023-09-19T15:32:21.479Z,23.30
2023-09-19T15:34:51.641Z,18.50
2023-09-19T15:37:22.258Z,18.40
2023-09-19T15:39:53.432Z,13.60
2023-09-19T15:42:23.607Z,17.80
2023-09-19T15:44:54.354Z,16.70
2023-09-19T15:47:25.901Z,20.50
2023-09-19T15:49:56.481Z,11.50
2023-09-19T15:52:27.956Z,17.00
2023-09-19T15:54:58.615Z,15.50
2023-09-19T15:57:32.371Z,19.30
2023-09-19T16:00:16.364Z,13.90
2023-09-19T16:02:49.112Z,17.20
2023-09-19T16:05:19.650Z,14.60
2023-09-19T16:07:58.988Z,13.00
2023-09-19T16:10:30.477Z,18.40
2023-09-19T16:13:00.862Z,14.50
2023-09-19T16:15:31.296Z,13.60
2023-09-19T16:18:02.138Z,16.80
2023-09-19T16:20:36.274Z,18.40
2023-09-19T16:23:07.039Z,13.00
2023-09-19T16:25:37.938Z,15.20
2023-09-19T16:28:09.065Z,13.00
2023-09-19T16:30:40.301Z,14.20
2023-09-19T16:33:10.707Z,13.60
2023-09-19T16:35:48.817Z,16.80
2023-09-19T16:38:19.050Z,15.70
2023-09-19T16:41:00.809Z,16.80
2023-09-19T16:43:31.195Z,22.20
2023-09-19T16:46:04.277Z,17.50
2023-09-19T16:48:55.416Z,19.50
2023-09-19T16:51:30.698Z,21.90
2023-09-19T16:53:59.841Z,20.20
2023-09-19T16:56:34.769Z,22.00
2023-09-19T16:59:07.484Z,18.30
2023-09-19T17:01:51.667Z,19.10
2023-09-19T17:04:22.060Z,17.30
2023-09-19T17:06:54.019Z,16.20
2023-09-19T17:09:24.297Z,16.80
2023-09-19T17:11:55.248Z,19.10
2023-09-19T17:14:25.474Z,15.60
2023-09-19T17:16:55.829Z,18.80
2023-09-19T17:19:26.101Z,17.30
2023-09-19T17:21:56.227Z,17.10
2023-09-19T17:24:26.366Z,16.00
2023-09-19T17:26:56.523Z,14.50
2023-09-19T17:29:27.990Z,17.10
2023-09-19T17:31:58.371Z,20.60
2023-09-19T17:34:28.566Z,13.90
2023-09-19T17:36:59.468Z,16.40
2023-09-19T17:39:31.334Z,13.20
2023-09-19T17:42:00.255Z,15.20
2023-09-19T17:44:36.274Z,15.30
2023-09-19T17:47:06.837Z,10.80
2023-09-19T17:49:39.400Z,11.60
2023-09-19T17:52:08.504Z,14.70
2023-09-19T17:54:38.802Z,13.00
2023-09-19T17:57:09.337Z,12.30
2023-09-19T17:59:40.604Z,12.30
2023-09-19T18:02:11.241Z,13.80
2023-09-19T18:04:41.302Z,12.20
2023-09-19T18:07:12.378Z,12.90
2023-09-19T18:09:42.967Z,12.90
2023-09-19T18:12:13.326Z,15.50
2023-09-19T18:14:42.623Z,17.10
2023-09-19T18:17:22.880Z,15.90
2023-09-19T18:19:53.065Z,15.60
2023-09-19T18:22:27.619Z,14.40
2023-09-19T18:24:58.643Z,13.40
2023-09-19T18:27:32.313Z,10.30
2023-09-19T18:30:03.685Z,14.10
2023-09-19T18:32:34.687Z,9.80
2023-09-19T18:35:08.898Z,6.70
2023-09-19T18:37:49.600Z,7.30
2023-09-19T18:40:20.034Z,9.80
2023-09-19T18:42:51.412Z,9.00
2023-09-19T18:45:38.423Z,7.90
2023-09-19T18:48:20.940Z,6.50
2023-09-19T18:50:55.021Z,8.10
2023-09-19T18:53:27.484Z,9.00
2023-09-19T18:56:16.745Z,5.70
2023-09-19T18:58:52.210Z,7.60
2023-09-19T19:01:22.407Z,7.20
2023-09-19T20:18:46.495Z,2.60
2023-09-19T20:21:15.756Z,3.70
2023-09-19T20:23:48.872Z,2.30
2023-09-19T20:26:17.810Z,2.40
2023-09-19T20:28:55.632Z,3.30
2023-09-19T20:33:54.258Z,3.60
2023-09-19T20:36:23.171Z,3.90
2023-09-19T20:38:55.841Z,2.90
2023-09-19T20:41:24.889Z,2.30
2023-09-19T20:43:53.270Z,2.00
2023-09-19T20:46:31.216Z,5.50
2023-09-19T20:49:02.447Z,2.20
2023-09-19T20:51:36.378Z,2.20
2023-09-19T20:54:09.300Z,3.30
2023-09-19T20:56:50.136Z,3.90
2023-09-19T20:59:39.915Z,2.30
2023-09-19T21:02:10.490Z,3.00
2023-09-19T21:04:39.508Z,3.40
2023-09-19T21:07:30.470Z,4.40
2023-09-19T21:10:11.987Z,3.10
2023-09-19T21:12:40.785Z,2.70
2023-09-19T21:15:10.029Z,2.30
2023-09-19T21:17:44.036Z,3.50
2023-09-19T21:20:26.974Z,3.40
2023-09-19T21:23:06.000Z,6.20
2023-09-19T21:25:52.532Z,4.30
2023-09-19T21:28:27.518Z,3.10
2023-09-19T21:31:15.935Z,4.60
2023-09-19T21:33:50.195Z,3.60
2023-09-19T21:36:25.070Z,3.90
2023-09-19T21:39:20.412Z,3.30
2023-09-19T21:42:01.708Z,4.60
2023-09-19T21:44:51.886Z,4.90
2023-09-19T21:47:29.266Z,3.30
2023-09-19T21:49:59.004Z,2.40
2023-09-19T21:52:32.007Z,4.70
2023-09-19T21:55:21.707Z,3.20
2023-09-19T21:57:50.744Z,3.20
2023-09-19T22:00:38.965Z,4.70
2023-09-19T22:03:17.200Z,4.00
2023-09-19T22:06:05.716Z,4.70
2023-09-19T22:08:35.565Z,3.90
2023-09-19T22:11:09.850Z,3.10
2023-09-19T22:13:52.620Z,4.10
2023-09-19T22:16:22.069Z,5.30
2023-09-19T22:18:56.019Z,3.40
2023-09-19T22:21:34.348Z,4.40
2023-09-19T22:24:23.587Z,3.30
2023-09-19T22:27:14.364Z,7.30
2023-09-19T22:29:46.791Z,4.80
2023-09-19T22:32:37.984Z,4.60
2023-09-19T22:35:11.980Z,4.00
2023-09-19T22:37:42.741Z,3.80
2023-09-19T22:40:55.725Z,6.10
2023-09-19T22:43:58.229Z,5.40
2023-09-19T22:46:28.408Z,5.90
2023-09-19T22:49:41.705Z,5.40
2023-09-19T22:52:11.211Z,4.30
2023-09-19T22:54:43.966Z,7.70
2023-09-19T22:57:16.632Z,7.50
2023-09-19T23:00:15.971Z,3.90
2023-09-19T23:03:10.893Z,4.70
2023-09-19T23:06:09.225Z,5.00
2023-09-19T23:09:06.460Z,4.40
2023-09-19T23:11:40.043Z,5.20
2023-09-19T23:14:40.745Z,4.10
2023-09-19T23:17:23.385Z,6.70
2023-09-19T23:20:24.198Z,4.60
2023-09-19T23:23:16.618Z,6.20
2023-09-19T23:26:07.883Z,6.70
2023-09-19T23:28:44.113Z,4.80
2023-09-19T23:31:39.076Z,8.00
2023-09-19T23:34:17.520Z,5.90
2023-09-19T23:37:01.188Z,7.20
2023-09-19T23:39:53.085Z,3.80
2023-09-19T23:42:23.132Z,5.90
2023-09-19T23:44:58.597Z,5.50
2023-09-19T23:47:52.165Z,7.40
2023-09-19T23:50:30.510Z,4.50
2023-09-19T23:53:18.517Z,4.60
2023-09-19T23:56:18.903Z,5.10
2023-09-19T23:59:07.473Z,4.50
